Wayside, Texas
Current Conditions -  °F | °C
As of 4:07 AM on Wednesday 26 Nov 2014 (Local Time) from KAMA Reporting Station
Clear Clear  
Wind Chill: 28°   Ceiling: Unl
Heat Index: 38°   Visibility: 10mi
Dew Point: 20°   Wind: 20mph
Humidity: 48%   Direction: 320°NW
Pressure: 30.1"   Gusts: 25mph
Location:  34.79°N, 101.55°W
Report Text: KAMA 261007Z AUTO 32017G22KT 10SM CLR 03/M07 A3010 RMK AO2 WSHFT 0947 T00331067
Loading
Personal Weather Stations






























Interactive Weather Map New forecast layout! Learn more

10-Day Weather Forecast

Advertisements
Track Severe Weather on mobile